Time;durP1;ratioP1;P1;durP2;ratioP2;P2;SDS_P1;SDS_P2;PMS_P1;PMS_P2;Temp;Humidity;BMP_temperature;BMP_pressure;BME280_temperature;BME280_humidity;BME280_pressure;Samples;Min_cycle;Max_cycle;Signal;HPM_P1;HPM_P2
2023/10/20 00:00:35;;;;;;;4.03;2.60;;;16.60;87.70;;;;;;5068396;28;20029;-63
2023/10/20 00:03:02;;;;;;;6.70;3.13;;;16.60;87.10;;;;;;5069249;28;20448;-62
2023/10/20 00:05:27;;;;;;;4.57;3.28;;;16.60;87.10;;;;;;5064700;28;20481;-63
2023/10/20 00:07:53;;;;;;;3.97;3.20;;;16.60;87.20;;;;;;5066426;28;20094;-62
2023/10/20 00:10:19;;;;;;;5.53;3.00;;;16.60;87.20;;;;;;5066569;28;20028;-63
2023/10/20 00:12:45;;;;;;;4.80;2.95;;;16.60;87.20;;;;;;5064680;28;20090;-62
2023/10/20 00:15:13;;;;;;;4.15;2.92;;;16.60;87.30;;;;;;5065108;28;20035;-62
2023/10/20 00:17:40;;;;;;;4.93;3.10;;;16.60;87.30;;;;;;5066837;28;20499;-63
2023/10/20 00:20:09;;;;;;;4.65;3.15;;;16.50;87.30;;;;;;5061807;28;20446;-62
2023/10/20 00:22:35;;;;;;;5.50;4.03;;;16.50;87.30;;;;;;5061475;28;20029;-63
2023/10/20 00:25:00;;;;;;;3.72;2.60;;;16.50;87.30;;;;;;5049225;28;20021;-62
2023/10/20 00:27:26;;;;;;;3.50;2.42;;;16.50;87.30;;;;;;5061746;28;20033;-63
2023/10/20 00:29:52;;;;;;;3.55;3.13;;;16.50;87.30;;;;;;5062979;28;20079;-63
2023/10/20 00:32:19;;;;;;;5.53;3.75;;;16.50;87.30;;;;;;5048578;28;20032;-63
2023/10/20 00:34:45;;;;;;;4.65;3.10;;;16.50;87.30;;;;;;5060555;28;20025;-62
2023/10/20 00:37:11;;;;;;;5.68;3.20;;;16.50;87.30;;;;;;5062248;28;20551;-63
2023/10/20 00:39:37;;;;;;;4.25;3.25;;;16.50;87.30;;;;;;5059262;28;20242;-62
2023/10/20 00:42:03;;;;;;;4.20;2.97;;;16.40;87.30;;;;;;5061426;28;20025;-63
2023/10/20 00:44:28;;;;;;;6.05;4.35;;;16.40;87.30;;;;;;5064784;28;20037;-63
2023/10/20 00:46:55;;;;;;;6.95;4.03;;;16.40;87.30;;;;;;5064202;28;20039;-63
2023/10/20 00:49:21;;;;;;;5.20;3.47;;;16.40;87.30;;;;;;5059190;28;20041;-64
2023/10/20 00:51:47;;;;;;;6.28;3.72;;;16.40;87.30;;;;;;5050605;28;20025;-62
2023/10/20 00:54:14;;;;;;;5.38;3.58;;;16.40;87.30;;;;;;5065482;28;20387;-62
2023/10/20 00:56:44;;;;;;;7.72;3.55;;;16.40;87.20;;;;;;5063756;28;20028;-63
2023/10/20 00:59:09;;;;;;;7.30;4.22;;;16.40;87.70;;;;;;5065105;28;20033;-62
2023/10/20 01:01:36;;;;;;;6.10;4.25;;;16.40;87.20;;;;;;5058297;28;20027;-63
2023/10/20 01:04:02;;;;;;;6.28;3.75;;;16.30;87.20;;;;;;5045072;28;20048;-63
2023/10/20 01:06:28;;;;;;;9.73;5.15;;;16.30;87.20;;;;;;5058948;28;20130;-62
2023/10/20 01:08:55;;;;;;;6.55;3.45;;;16.30;87.20;;;;;;5061807;28;20130;-62
2023/10/20 01:11:21;;;;;;;6.05;4.13;;;16.20;87.30;;;;;;5046833;28;20093;-63
2023/10/20 01:13:47;;;;;;;5.43;4.32;;;16.20;87.30;;;;;;5066761;28;20423;-63
2023/10/20 01:16:12;;;;;;;5.30;3.28;;;16.20;87.40;;;;;;5066046;28;20037;-63
2023/10/20 01:18:38;;;;;;;5.05;3.90;;;16.20;87.40;;;;;;5068453;28;20078;-63
2023/10/20 01:21:04;;;;;;;4.55;3.28;;;16.20;87.40;;;;;;5064901;28;20086;-63
2023/10/20 01:23:30;;;;;;;4.32;3.25;;;16.10;87.30;;;;;;5061209;28;20453;-63
2023/10/20 01:25:56;;;;;;;5.50;4.40;;;16.20;87.30;;;;;;5066454;28;20052;-62
2023/10/20 01:28:23;;;;;;;5.93;4.03;;;16.10;87.20;;;;;;5066542;28;20025;-63
2023/10/20 01:30:48;;;;;;;6.35;4.75;;;16.20;87.20;;;;;;5068422;28;20033;-62
2023/10/20 01:33:14;;;;;;;5.78;3.55;;;16.10;87.20;;;;;;5066701;28;20039;-62
2023/10/20 01:35:40;;;;;;;9.85;4.90;;;16.10;87.20;;;;;;5064566;28;20041;-62
2023/10/20 01:38:05;;;;;;;3.72;3.05;;;16.10;87.20;;;;;;5067636;28;20120;-63
2023/10/20 01:40:31;;;;;;;6.05;3.92;;;16.10;87.10;;;;;;5070211;28;20055;-63
2023/10/20 01:42:57;;;;;;;5.97;3.95;;;16.20;87.10;;;;;;5070489;28;20501;-63
2023/10/20 01:45:23;;;;;;;5.95;3.70;;;16.10;87.00;;;;;;5035730;28;20095;-63
2023/10/20 01:47:49;;;;;;;6.35;3.95;;;16.10;87.00;;;;;;5068456;28;20466;-62
2023/10/20 01:50:15;;;;;;;7.70;4.03;;;16.10;87.00;;;;;;5071322;28;20020;-63
2023/10/20 01:52:42;;;;;;;12.45;5.30;;;16.10;87.10;;;;;;5068401;28;20028;-63
2023/10/20 01:55:09;;;;;;;6.03;3.58;;;16.00;87.10;;;;;;5067856;28;20109;-62
2023/10/20 01:57:35;;;;;;;7.20;3.47;;;16.00;87.20;;;;;;5067219;28;20071;-63
2023/10/20 02:00:02;;;;;;;7.78;5.03;;;16.00;87.20;;;;;;5068537;28;20036;-62
2023/10/20 02:02:28;;;;;;;8.48;4.63;;;16.00;87.10;;;;;;5050755;28;20029;-63
2023/10/20 02:04:54;;;;;;;5.95;3.67;;;16.00;87.10;;;;;;5067645;28;20082;-62
2023/10/20 02:07:20;;;;;;;5.75;4.40;;;15.90;87.10;;;;;;5065213;28;20103;-63
2023/10/20 02:09:45;;;;;;;7.97;3.75;;;15.90;87.10;;;;;;5070472;28;20062;-62
2023/10/20 02:12:13;;;;;;;8.45;4.38;;;15.90;87.00;;;;;;5066291;28;20025;-63
2023/10/20 02:14:39;;;;;;;8.10;4.45;;;15.90;87.00;;;;;;5070539;28;20051;-63
2023/10/20 02:17:05;;;;;;;7.80;4.50;;;15.80;87.00;;;;;;5071352;28;20147;-63
2023/10/20 02:19:31;;;;;;;7.93;4.65;;;15.80;87.10;;;;;;5047067;28;20554;-62
2023/10/20 02:21:59;;;;;;;10.73;5.07;;;15.80;87.10;;;;;;5050603;28;20055;-63
2023/10/20 02:24:25;;;;;;;5.03;3.40;;;15.80;87.10;;;;;;5065981;28;20146;-64
2023/10/20 02:26:51;;;;;;;8.88;4.32;;;15.80;87.10;;;;;;5068050;28;20028;-64
2023/10/20 02:29:17;;;;;;;6.53;4.28;;;15.80;87.10;;;;;;5069195;28;20037;-63
2023/10/20 02:31:43;;;;;;;6.40;4.00;;;15.80;87.00;;;;;;5065132;28;20031;-64
2023/10/20 02:34:09;;;;;;;9.18;4.88;;;15.80;86.90;;;;;;5051500;28;20112;-63
2023/10/20 02:36:35;;;;;;;6.43;4.60;;;15.80;87.00;;;;;;5069893;28;20029;-63
2023/10/20 02:39:01;;;;;;;8.38;4.40;;;15.70;86.90;;;;;;5058174;28;20017;-64
2023/10/20 02:41:28;;;;;;;8.63;5.13;;;15.70;86.90;;;;;;5070013;28;20024;-63
2023/10/20 02:43:54;;;;;;;8.82;5.75;;;15.70;86.90;;;;;;5052762;28;20040;-62
2023/10/20 02:46:20;;;;;;;9.60;5.47;;;15.70;87.00;;;;;;5061774;28;20029;-63
2023/10/20 02:48:45;;;;;;;8.70;5.10;;;15.60;86.90;;;;;;5063942;28;20111;-62
2023/10/20 02:51:13;;;;;;;12.38;6.85;;;15.50;86.90;;;;;;5063377;28;20033;-63
2023/10/20 02:53:41;;;;;;;9.55;4.95;;;15.50;87.00;;;;;;5066761;28;20480;-63
2023/10/20 02:56:15;;;;;;;10.63;5.15;;;15.50;87.10;;;;;;5038765;28;20033;-63
2023/10/20 02:58:44;;;;;;;11.15;5.65;;;15.50;86.90;;;;;;5058708;28;20404;-64
2023/10/20 03:01:13;;;;;;;7.97;5.70;;;15.40;87.00;;;;;;5066792;28;20024;-63
2023/10/20 03:03:39;;;;;;;10.63;5.82;;;15.40;86.90;;;;;;5065421;28;20529;-62
2023/10/20 03:06:06;;;;;;;8.05;4.88;;;15.30;86.90;;;;;;5067734;28;20028;-62
2023/10/20 03:08:32;;;;;;;11.30;5.75;;;15.30;87.00;;;;;;5065507;28;20040;-63
2023/10/20 03:10:58;;;;;;;9.93;5.47;;;15.30;87.00;;;;;;5050614;28;20483;-63
2023/10/20 03:13:25;;;;;;;12.88;5.43;;;15.30;86.90;;;;;;5059333;28;20032;-64
2023/10/20 03:15:51;;;;;;;10.30;5.07;;;15.30;86.90;;;;;;5061313;28;20062;-63
2023/10/20 03:18:17;;;;;;;9.48;5.35;;;15.30;86.90;;;;;;5062408;28;20025;-63
2023/10/20 03:20:43;;;;;;;11.30;5.40;;;15.30;86.80;;;;;;5064526;28;20554;-63
2023/10/20 03:23:10;;;;;;;12.88;5.10;;;15.30;86.70;;;;;;5054999;28;20025;-63
2023/10/20 03:25:36;;;;;;;9.40;5.22;;;15.20;86.70;;;;;;5066035;28;20790;-62
2023/10/20 03:28:03;;;;;;;9.55;5.93;;;15.20;86.70;;;;;;5064606;28;20036;-63
2023/10/20 03:30:29;;;;;;;8.40;4.93;;;15.20;86.70;;;;;;5064891;28;20032;-62
2023/10/20 03:32:55;;;;;;;12.88;6.93;;;15.10;86.70;;;;;;5065795;28;20021;-63
2023/10/20 03:35:21;;;;;;;9.95;4.90;;;15.10;86.70;;;;;;5047091;28;20029;-63
2023/10/20 03:37:54;;;;;;;10.55;5.10;;;15.10;86.70;;;;;;5054569;28;20070;-63
2023/10/20 03:40:40;;;;;;;15.73;5.38;;;15.00;86.70;;;;;;5048689;28;20032;-63
2023/10/20 03:43:08;;;;;;;8.73;5.55;;;15.00;86.70;;;;;;5058970;28;20036;-63
2023/10/20 03:45:52;;;;;;;10.63;4.88;;;15.00;86.70;;;;;;5062224;28;20056;-63
2023/10/20 03:48:19;;;;;;;7.68;5.32;;;15.00;86.60;;;;;;5048946;28;20028;-63
2023/10/20 03:50:47;;;;;;;10.93;5.05;;;14.90;86.70;;;;;;5059443;28;20029;-63
2023/10/20 03:53:22;;;;;;;8.77;5.72;;;14.90;86.60;;;;;;5060607;28;20036;-63
2023/10/20 03:56:00;;;;;;;10.30;5.93;;;14.90;86.60;;;;;;5063451;28;20430;-63
2023/10/20 03:58:27;;;;;;;11.15;6.20;;;14.90;86.50;;;;;;5065196;28;20020;-64
2023/10/20 04:00:57;;;;;;;13.77;6.30;;;14.90;86.60;;;;;;5062373;28;20041;-63
2023/10/20 04:03:26;;;;;;;9.93;5.72;;;14.80;86.60;;;;;;5066946;28;20029;-63
2023/10/20 04:05:52;;;;;;;8.15;5.10;;;14.80;87.20;;;;;;5064391;28;20044;-63
2023/10/20 04:08:19;;;;;;;9.90;5.40;;;14.80;86.70;;;;;;5062424;28;20415;-63
2023/10/20 04:10:45;;;;;;;13.05;5.72;;;14.70;86.60;;;;;;5060818;28;20032;-64
2023/10/20 04:13:12;;;;;;;13.98;6.82;;;14.70;86.60;;;;;;5035328;28;20037;-63
2023/10/20 04:15:39;;;;;;;7.97;4.90;;;14.70;86.60;;;;;;5057975;28;20473;-63
2023/10/20 04:18:05;;;;;;;7.38;4.15;;;14.70;86.60;;;;;;5062622;28;20032;-62
2023/10/20 04:20:37;;;;;;;10.07;4.97;;;14.70;86.60;;;;;;5059586;28;20426;-64
2023/10/20 04:23:04;;;;;;;7.75;4.93;;;14.70;86.60;;;;;;5057275;28;20033;-64
2023/10/20 04:25:33;;;;;;;8.63;5.22;;;14.70;86.60;;;;;;5058348;28;20044;-64
2023/10/20 04:28:12;;;;;;;8.73;4.97;;;14.70;86.60;;;;;;5054847;28;20017;-64
2023/10/20 04:56:02;;;;;;;9.70;5.50;;;14.50;86.50;;;;;;5063273;28;20051;-63
2023/10/20 05:02:39;;;;;;;8.48;4.57;;;14.50;86.50;;;;;;5045086;28;20128;-64
2023/10/20 05:05:11;;;;;;;12.63;4.85;;;14.50;86.60;;;;;;5058521;28;20544;-64
2023/10/20 05:07:38;;;;;;;8.45;4.50;;;14.50;86.60;;;;;;5057124;28;20060;-64
2023/10/20 05:10:04;;;;;;;7.53;3.97;;;14.40;86.40;;;;;;5044780;28;20063;-64
2023/10/20 05:12:33;;;;;;;5.95;4.15;;;14.50;86.50;;;;;;5064435;28;20071;-64
2023/10/20 05:14:59;;;;;;;6.03;4.13;;;14.40;86.40;;;;;;5071751;28;20064;-64
2023/10/20 05:17:25;;;;;;;8.18;4.18;;;14.40;86.40;;;;;;5067645;28;20060;-64
2023/10/20 05:19:53;;;;;;;10.15;4.22;;;14.40;86.60;;;;;;5068354;28;20033;-63
2023/10/20 05:22:19;;;;;;;7.97;4.38;;;14.40;86.60;;;;;;5072494;28;20581;-62
2023/10/20 05:24:44;;;;;;;6.72;3.15;;;14.30;86.50;;;;;;5070568;28;20103;-62
2023/10/20 05:27:12;;;;;;;6.80;3.83;;;14.30;86.60;;;;;;5069899;28;20024;-62
2023/10/20 05:29:38;;;;;;;4.88;3.42;;;14.30;86.60;;;;;;5064016;28;20033;-64
2023/10/20 05:32:06;;;;;;;6.68;4.13;;;14.30;86.60;;;;;;5065685;28;20045;-63
2023/10/20 05:34:32;;;;;;;5.72;3.20;;;14.30;86.50;;;;;;5045844;28;20079;-64
2023/10/20 05:36:57;;;;;;;5.70;3.50;;;14.30;86.40;;;;;;5068736;28;20674;-63
2023/10/20 05:39:23;;;;;;;5.32;3.55;;;14.30;86.40;;;;;;5068650;28;20036;-64
2023/10/20 05:41:49;;;;;;;4.93;2.92;;;14.30;86.40;;;;;;5047110;28;20033;-63
2023/10/20 05:44:17;;;;;;;5.93;2.78;;;14.30;86.40;;;;;;5035086;28;20021;-63
2023/10/20 05:46:43;;;;;;;6.28;3.22;;;14.30;86.40;;;;;;5067266;28;20041;-62
2023/10/20 05:49:08;;;;;;;4.45;3.08;;;14.30;86.30;;;;;;5067704;28;20047;-64
2023/10/20 05:51:34;;;;;;;7.13;3.42;;;14.20;86.40;;;;;;5066563;28;20041;-63
2023/10/20 05:54:00;;;;;;;4.05;2.95;;;14.20;86.30;;;;;;5053034;28;20503;-64
2023/10/20 05:56:25;;;;;;;4.00;2.47;;;14.20;86.30;;;;;;5069501;28;20404;-62
2023/10/20 05:58:51;;;;;;;4.10;2.40;;;14.20;86.30;;;;;;5067210;28;20112;-62
2023/10/20 06:01:18;;;;;;;2.90;1.75;;;14.10;86.30;;;;;;5070035;28;20033;-62
2023/10/20 06:03:44;;;;;;;3.67;2.65;;;14.20;86.30;;;;;;5066637;28;20055;-62
2023/10/20 06:06:10;;;;;;;5.88;2.72;;;14.20;86.20;;;;;;5066018;28;20056;-62
2023/10/20 06:08:35;;;;;;;3.78;2.60;;;14.20;86.20;;;;;;5070826;28;20052;-64
2023/10/20 06:11:03;;;;;;;6.78;2.92;;;14.20;86.20;;;;;;5058309;28;20033;-62
2023/10/20 06:13:30;;;;;;;6.80;2.67;;;14.20;86.00;;;;;;5068077;28;20036;-62
2023/10/20 06:15:57;;;;;;;4.78;2.55;;;14.20;86.10;;;;;;5071043;28;20029;-64
2023/10/20 06:18:22;;;;;;;6.88;2.85;;;14.10;86.00;;;;;;5066574;28;20025;-64
2023/10/20 06:20:48;;;;;;;4.13;2.47;;;14.20;86.10;;;;;;5070069;28;20438;-63
2023/10/20 06:23:14;;;;;;;6.22;3.30;;;14.10;86.10;;;;;;5070835;28;20463;-63
2023/10/20 06:25:42;;;;;;;7.93;4.78;;;14.10;86.00;;;;;;5069323;28;20024;-63
2023/10/20 06:28:07;;;;;;;6.05;3.47;;;14.10;86.00;;;;;;5051537;28;20054;-62
2023/10/20 06:30:39;;;;;;;5.35;4.18;;;14.00;86.00;;;;;;5048265;28;20028;-62
2023/10/20 06:35:33;;;;;;;9.10;4.95;;;14.00;86.20;;;;;;5069673;28;20086;-62
2023/10/20 06:40:34;;;;;;;8.23;4.18;;;13.90;86.10;;;;;;5065369;28;20037;-63
2023/10/20 06:43:00;;;;;;;6.63;4.63;;;13.90;86.20;;;;;;5070801;28;20024;-64
2023/10/20 06:45:25;;;;;;;7.80;4.10;;;13.90;86.30;;;;;;5050880;28;20020;-64
2023/10/20 06:47:51;;;;;;;9.30;4.07;;;13.80;86.20;;;;;;5065408;28;20021;-63
2023/10/20 06:50:17;;;;;;;10.02;5.28;;;13.90;86.20;;;;;;5065913;28;20107;-62
2023/10/20 06:52:42;;;;;;;8.35;4.63;;;13.90;86.20;;;;;;5069572;28;20024;-62
2023/10/20 06:55:09;;;;;;;6.95;4.75;;;13.80;86.10;;;;;;5067879;28;20484;-63
2023/10/20 06:57:35;;;;;;;10.63;4.30;;;13.80;86.00;;;;;;5058891;28;20056;-63
2023/10/20 07:00:02;;;;;;;6.85;4.10;;;13.80;86.20;;;;;;5065893;28;20029;-63
2023/10/20 07:02:28;;;;;;;5.00;3.63;;;13.80;86.20;;;;;;5068370;28;20126;-63
2023/10/20 07:04:53;;;;;;;8.07;3.85;;;13.80;86.20;;;;;;5051136;28;20128;-62
2023/10/20 07:07:19;;;;;;;9.25;4.07;;;13.80;86.00;;;;;;5066899;28;20048;-62
2023/10/20 07:09:45;;;;;;;5.38;3.92;;;13.70;86.10;;;;;;5068505;28;20029;-63
2023/10/20 07:12:11;;;;;;;5.28;3.17;;;13.70;86.20;;;;;;5065833;28;20497;-63
2023/10/20 07:14:40;;;;;;;3.80;2.40;;;13.70;86.10;;;;;;5068539;28;20033;-63
2023/10/20 07:17:06;;;;;;;4.13;3.47;;;13.70;86.10;;;;;;5062681;28;20065;-63
2023/10/20 07:19:33;;;;;;;4.50;2.40;;;13.70;86.10;;;;;;5067013;28;20024;-63
2023/10/20 07:22:00;;;;;;;5.90;2.95;;;13.70;86.00;;;;;;5064997;28;20332;-64
2023/10/20 07:24:26;;;;;;;4.20;2.53;;;13.70;85.90;;;;;;5061602;28;20547;-64
2023/10/20 07:26:53;;;;;;;5.32;2.97;;;13.70;85.90;;;;;;5059918;28;20093;-62
2023/10/20 07:29:18;;;;;;;6.55;2.90;;;13.70;86.00;;;;;;5061445;28;20059;-63
2023/10/20 07:31:47;;;;;;;3.13;2.72;;;13.60;86.00;;;;;;5059535;28;20072;-63
2023/10/20 07:34:13;;;;;;;2.90;1.95;;;13.60;86.10;;;;;;5054383;28;20029;-63
2023/10/20 07:36:39;;;;;;;3.58;2.45;;;13.70;86.10;;;;;;5061166;28;20040;-63
2023/10/20 07:39:08;;;;;;;3.80;2.65;;;13.60;85.90;;;;;;5061388;28;20508;-63
2023/10/20 07:41:35;;;;;;;2.95;2.35;;;13.60;85.90;;;;;;5067242;28;20068;-63
2023/10/20 07:44:03;;;;;;;3.88;2.53;;;13.60;85.80;;;;;;5038640;28;20039;-63
2023/10/20 07:46:31;;;;;;;5.75;2.80;;;13.60;85.90;;;;;;5067184;28;20083;-63
2023/10/20 07:48:57;;;;;;;2.60;2.08;;;13.60;85.90;;;;;;5059880;28;20430;-63
2023/10/20 07:51:23;;;;;;;1.73;1.45;;;13.60;85.90;;;;;;5064638;28;20025;-63
2023/10/20 07:53:49;;;;;;;5.63;2.00;;;13.60;85.90;;;;;;5063782;28;20028;-63
2023/10/20 07:56:15;;;;;;;6.75;2.33;;;13.60;85.90;;;;;;5063514;28;20090;-63
2023/10/20 07:58:40;;;;;;;4.40;2.72;;;13.60;85.80;;;;;;5062861;28;20118;-63
2023/10/20 08:01:06;;;;;;;2.67;1.42;;;13.50;85.80;;;;;;5065681;28;20033;-63
2023/10/20 08:03:32;;;;;;;4.07;2.08;;;13.60;85.70;;;;;;5049662;28;20028;-65
2023/10/20 08:06:02;;;;;;;3.38;2.13;;;13.50;85.70;;;;;;5063272;28;20035;-64
2023/10/20 08:08:29;;;;;;;2.30;1.80;;;13.50;85.70;;;;;;5047265;28;20530;-62
2023/10/20 08:10:55;;;;;;;2.47;1.50;;;13.50;85.70;;;;;;5066863;28;20021;-63
2023/10/20 08:13:21;;;;;;;2.35;1.13;;;13.50;85.70;;;;;;5064554;28;20039;-63
2023/10/20 08:15:47;;;;;;;3.72;1.55;;;13.50;85.80;;;;;;5063987;28;20024;-64
2023/10/20 08:18:13;;;;;;;2.38;1.52;;;13.50;85.70;;;;;;5063003;28;20514;-64
2023/10/20 08:20:39;;;;;;;2.58;1.35;;;13.40;85.60;;;;;;5067403;28;20020;-63
2023/10/20 08:23:05;;;;;;;3.30;1.65;;;13.50;85.80;;;;;;5049705;28;20036;-63
2023/10/20 08:25:31;;;;;;;3.28;1.65;;;13.40;85.70;;;;;;5067463;28;20434;-64
2023/10/20 08:27:57;;;;;;;1.45;1.27;;;13.50;85.70;;;;;;5047800;28;20347;-64
2023/10/20 08:30:23;;;;;;;2.78;1.52;;;13.50;85.50;;;;;;5064279;28;20459;-62
2023/10/20 08:32:49;;;;;;;1.27;1.15;;;13.40;85.50;;;;;;5050909;28;20021;-62
2023/10/20 08:35:15;;;;;;;1.45;1.35;;;13.40;85.60;;;;;;5060482;28;20458;-62
2023/10/20 08:37:41;;;;;;;1.55;0.95;;;13.40;85.60;;;;;;5049466;28;20107;-62
2023/10/20 08:40:10;;;;;;;2.80;1.52;;;13.40;85.60;;;;;;5057580;28;20135;-62
2023/10/20 08:42:40;;;;;;;0.85;0.80;;;13.30;85.40;;;;;;5039680;28;20139;-62
2023/10/20 08:45:12;;;;;;;1.35;1.00;;;13.30;85.50;;;;;;5039538;28;20036;-63
2023/10/20 08:47:41;;;;;;;1.23;0.95;;;13.30;85.60;;;;;;5062028;28;20059;-63
2023/10/20 08:50:09;;;;;;;0.52;0.45;;;13.30;85.60;;;;;;5059506;28;20158;-64
2023/10/20 08:52:36;;;;;;;0.70;0.60;;;13.30;85.70;;;;;;5045260;28;20036;-63
2023/10/20 08:55:04;;;;;;;0.82;0.80;;;13.30;85.60;;;;;;5059726;28;20036;-63
2023/10/20 08:57:29;;;;;;;1.10;0.98;;;13.20;85.50;;;;;;5046458;28;20033;-64
2023/10/20 08:59:55;;;;;;;1.10;1.00;;;13.20;85.50;;;;;;5064703;28;20036;-63
2023/10/20 09:02:21;;;;;;;0.68;0.55;;;13.20;85.50;;;;;;5045234;28;20035;-63
2023/10/20 09:04:51;;;;;;;0.60;0.50;;;13.10;85.50;;;;;;5059510;28;20519;-63
2023/10/20 09:07:17;;;;;;;0.80;0.70;;;13.10;85.50;;;;;;5065044;28;20380;-62
2023/10/20 09:09:43;;;;;;;0.77;0.70;;;13.10;85.50;;;;;;5066992;28;20039;-62
2023/10/20 09:12:10;;;;;;;0.98;0.80;;;13.10;85.50;;;;;;5058448;28;20108;-62
2023/10/20 09:14:39;;;;;;;0.93;0.70;;;13.10;85.60;;;;;;5063678;28;20032;-62
2023/10/20 09:17:05;;;;;;;1.00;0.98;;;13.10;85.70;;;;;;5065568;28;20448;-62
2023/10/20 09:19:31;;;;;;;0.65;0.60;;;13.00;85.60;;;;;;5067706;28;20040;-62
2023/10/20 09:21:57;;;;;;;1.38;0.80;;;13.00;85.60;;;;;;5067657;28;20036;-62
2023/10/20 09:24:31;;;;;;;0.47;0.40;;;13.00;85.50;;;;;;5068228;28;20028;-62
2023/10/20 09:26:58;;;;;;;0.50;0.50;;;13.00;86.10;;;;;;5067566;28;20336;-62
2023/10/20 09:29:24;;;;;;;0.50;0.50;;;13.00;85.50;;;;;;5061959;28;20033;-63
2023/10/20 09:31:50;;;;;;;1.60;0.68;;;13.00;85.60;;;;;;5065179;28;20132;-63
2023/10/20 09:34:16;;;;;;;0.50;0.50;;;12.90;85.50;;;;;;5067273;28;20111;-63
2023/10/20 09:36:46;;;;;;;1.02;0.63;;;12.90;85.70;;;;;;5065837;28;20032;-63
2023/10/20 09:39:19;;;;;;;1.92;0.50;;;12.90;85.60;;;;;;5059177;28;20028;-63
2023/10/20 09:41:51;;;;;;;0.55;0.40;;;12.90;85.70;;;;;;5062028;28;20023;-62
2023/10/20 09:44:34;;;;;;;1.00;0.63;;;12.90;85.70;;;;;;5066438;28;20476;-63
2023/10/20 09:47:09;;;;;;;0.40;0.40;;;12.90;85.60;;;;;;5049118;28;20024;-70
2023/10/20 09:49:36;;;;;;;0.52;0.52;;;12.90;85.50;;;;;;5065779;28;20111;-70
2023/10/20 09:52:05;;;;;;;0.32;0.32;;;12.90;85.60;;;;;;5067879;28;20056;-70
2023/10/20 09:54:33;;;;;;;0.85;0.77;;;12.90;85.60;;;;;;5067580;28;20048;-70
2023/10/20 09:57:00;;;;;;;1.08;0.60;;;12.90;85.60;;;;;;5057309;28;20409;-70
2023/10/20 09:59:27;;;;;;;0.43;0.43;;;12.90;85.60;;;;;;5063742;28;20024;-70
2023/10/20 10:01:56;;;;;;;0.90;0.55;;;12.90;85.70;;;;;;5053961;28;20033;-71
2023/10/20 10:04:29;;;;;;;1.50;0.40;;;12.90;85.60;;;;;;5065758;28;20040;-70
2023/10/20 10:06:55;;;;;;;0.47;0.35;;;12.90;85.60;;;;;;5065072;28;20479;-68
2023/10/20 10:09:21;;;;;;;0.85;0.40;;;12.90;85.70;;;;;;5065764;28;20036;-77
2023/10/20 10:11:49;;;;;;;0.40;0.40;;;12.90;85.60;;;;;;5062047;28;20484;-70
2023/10/20 10:14:19;;;;;;;1.27;0.40;;;12.90;85.60;;;;;;5057574;28;20119;-65
2023/10/20 10:17:09;;;;;;;0.40;0.40;;;13.00;85.70;;;;;;5052099;28;20094;-61
2023/10/20 10:19:35;;;;;;;0.50;0.43;;;13.00;85.60;;;;;;5059237;28;20102;-65
2023/10/20 10:22:01;;;;;;;0.30;0.30;;;13.00;85.70;;;;;;5071050;28;20036;-64
2023/10/20 10:24:31;;;;;;;0.75;0.70;;;13.00;85.60;;;;;;5067280;28;20032;-64
2023/10/20 10:27:06;;;;;;;1.30;0.30;;;13.00;85.60;;;;;;5064667;28;20448;-65
2023/10/20 10:30:13;;;;;;;0.45;0.30;;;13.00;85.60;;;;;;5062172;28;20032;-65
2023/10/20 10:32:48;;;;;;;0.75;0.55;;;13.00;85.50;;;;;;5065522;28;20040;-65
2023/10/20 10:35:17;;;;;;;0.35;0.30;;;13.00;85.60;;;;;;5064857;28;20031;-64
2023/10/20 10:37:43;;;;;;;0.73;0.55;;;13.00;85.60;;;;;;5064925;28;20044;-64
2023/10/20 10:40:12;;;;;;;0.73;0.60;;;12.90;85.60;;;;;;5065766;28;20116;-64
2023/10/20 10:42:38;;;;;;;1.10;0.55;;;13.00;85.70;;;;;;5064893;28;20037;-65
2023/10/20 10:45:30;;;;;;;2.13;0.47;;;13.00;85.60;;;;;;5063974;28;20086;-65
2023/10/20 10:48:09;;;;;;;0.55;0.55;;;13.00;85.50;;;;;;5067196;28;20028;-65
2023/10/20 10:50:45;;;;;;;0.88;0.45;;;13.00;85.60;;;;;;5066340;28;20028;-64
2023/10/20 10:53:12;;;;;;;0.63;0.63;;;13.00;85.70;;;;;;5066577;28;20028;-66
2023/10/20 10:55:39;;;;;;;0.30;0.30;;;12.90;85.70;;;;;;5064017;28;20029;-64
2023/10/20 10:58:10;;;;;;;0.43;0.30;;;12.90;85.80;;;;;;5068796;28;20032;-65
2023/10/20 11:00:37;;;;;;;0.30;0.30;;;12.90;85.80;;;;;;5049928;28;20429;-67
2023/10/20 11:03:04;;;;;;;0.25;0.25;;;12.90;85.80;;;;;;5063768;28;20085;-67
2023/10/20 11:05:32;;;;;;;0.45;0.30;;;12.90;85.90;;;;;;5050448;28;20290;-67
2023/10/20 11:08:01;;;;;;;0.55;0.50;;;13.00;85.80;;;;;;5066657;28;20126;-67
2023/10/20 11:10:27;;;;;;;0.47;0.40;;;13.00;85.90;;;;;;5067971;28;20033;-67
2023/10/20 11:12:55;;;;;;;1.23;0.45;;;13.00;85.90;;;;;;5061710;28;20127;-67
2023/10/20 11:15:21;;;;;;;0.43;0.43;;;13.00;85.90;;;;;;5063648;28;20037;-65
2023/10/20 11:17:49;;;;;;;1.35;0.30;;;13.00;85.80;;;;;;5062146;28;20151;-65
2023/10/20 11:20:19;;;;;;;0.30;0.30;;;13.00;85.80;;;;;;5050623;28;20127;-66
2023/10/20 11:22:45;;;;;;;0.38;0.38;;;13.00;85.80;;;;;;5063615;28;20056;-67
2023/10/20 11:25:19;;;;;;;0.20;0.20;;;13.00;85.70;;;;;;5032544;28;20072;-66
2023/10/20 11:27:53;;;;;;;0.40;0.40;;;13.00;85.70;;;;;;5049946;28;20470;-62
2023/10/20 11:30:24;;;;;;;0.30;0.30;;;13.00;85.70;;;;;;5065848;28;20047;-62
2023/10/20 11:32:51;;;;;;;0.50;0.50;;;12.90;85.70;;;;;;5064440;28;20032;-62
2023/10/20 11:35:17;;;;;;;0.40;0.40;;;12.90;85.80;;;;;;5063729;28;20094;-61
2023/10/20 11:37:43;;;;;;;0.98;0.50;;;12.90;85.90;;;;;;5066446;28;20024;-62
2023/10/20 11:40:09;;;;;;;0.40;0.40;;;12.90;85.90;;;;;;5064009;28;20036;-63
2023/10/20 11:42:35;;;;;;;0.30;0.30;;;12.90;85.80;;;;;;5059334;28;20081;-63
2023/10/20 11:45:01;;;;;;;0.55;0.32;;;13.00;85.90;;;;;;5062050;28;20143;-62
2023/10/20 11:47:27;;;;;;;0.30;0.30;;;13.00;85.90;;;;;;5048149;28;21642;-64
2023/10/20 11:49:54;;;;;;;0.20;0.20;;;13.00;85.90;;;;;;5063536;28;20033;-65
2023/10/20 11:52:22;;;;;;;0.30;0.30;;;13.00;85.90;;;;;;5067143;28;20044;-64
2023/10/20 11:54:48;;;;;;;0.20;0.20;;;13.00;85.80;;;;;;5065049;28;20043;-63
2023/10/20 11:57:15;;;;;;;0.20;0.20;;;13.10;85.70;;;;;;5058840;28;20033;-63
2023/10/20 11:59:41;;;;;;;0.40;0.40;;;13.10;85.70;;;;;;5050256;28;20033;-63
2023/10/20 12:02:07;;;;;;;0.57;0.45;;;13.10;85.70;;;;;;5044224;28;20079;-62
2023/10/20 12:04:33;;;;;;;0.20;0.20;;;13.10;85.70;;;;;;5061345;28;20106;-66
2023/10/20 12:06:59;;;;;;;0.20;0.20;;;13.10;85.80;;;;;;5063715;28;20033;-65
2023/10/20 12:09:24;;;;;;;2.03;0.30;;;13.00;85.70;;;;;;5045011;28;20131;-66
2023/10/20 12:11:50;;;;;;;0.93;0.30;;;13.00;85.80;;;;;;5062801;28;20044;-66
2023/10/20 12:14:16;;;;;;;0.30;0.30;;;13.00;85.80;;;;;;5068680;28;20032;-66
2023/10/20 12:16:42;;;;;;;0.43;0.40;;;13.00;85.90;;;;;;5052032;28;20044;-66
2023/10/20 12:19:08;;;;;;;0.30;0.30;;;12.90;85.80;;;;;;5066010;28;20873;-66
2023/10/20 12:21:34;;;;;;;0.43;0.20;;;12.90;85.90;;;;;;5068989;28;20111;-66
2023/10/20 12:24:00;;;;;;;0.65;0.32;;;12.90;85.90;;;;;;5063945;28;20082;-65
2023/10/20 12:26:26;;;;;;;0.32;0.32;;;12.90;85.90;;;;;;5059744;28;20032;-66
2023/10/20 12:28:52;;;;;;;0.40;0.22;;;12.90;85.90;;;;;;5065018;28;20032;-66
2023/10/20 12:31:18;;;;;;;0.30;0.30;;;12.90;85.80;;;;;;5048872;28;20387;-65
2023/10/20 12:33:45;;;;;;;0.25;0.25;;;12.90;85.90;;;;;;5062857;28;20032;-65
2023/10/20 12:36:14;;;;;;;0.30;0.30;;;12.90;86.00;;;;;;5061334;28;20040;-67
2023/10/20 12:38:43;;;;;;;0.30;0.30;;;12.90;86.00;;;;;;5067193;28;20044;-66
2023/10/20 12:41:10;;;;;;;1.02;0.75;;;12.80;85.90;;;;;;5046975;28;20349;-66
2023/10/20 12:43:35;;;;;;;0.43;0.43;;;12.80;86.00;;;;;;5065051;28;20147;-66
2023/10/20 12:46:01;;;;;;;0.28;0.28;;;12.80;86.10;;;;;;5066831;28;20120;-67
2023/10/20 12:48:27;;;;;;;1.48;0.40;;;12.80;86.10;;;;;;5059649;28;20036;-67
2023/10/20 12:50:53;;;;;;;0.30;0.30;;;12.80;86.10;;;;;;5061557;28;20123;-66
2023/10/20 12:53:21;;;;;;;0.30;0.30;;;12.80;86.20;;;;;;5064593;28;20032;-66
2023/10/20 12:55:47;;;;;;;0.55;0.30;;;12.80;86.30;;;;;;5059826;28;20032;-67
2023/10/20 12:58:13;;;;;;;0.70;0.70;;;12.70;86.30;;;;;;5064799;28;20029;-66
2023/10/20 13:00:40;;;;;;;0.30;0.30;;;12.80;86.40;;;;;;5063927;28;20037;-66
2023/10/20 13:03:08;;;;;;;0.32;0.32;;;12.80;86.40;;;;;;5064371;28;20070;-66
2023/10/20 13:05:34;;;;;;;0.40;0.28;;;12.80;86.30;;;;;;5062601;28;20036;-66
2023/10/20 13:08:00;;;;;;;0.30;0.20;;;12.80;86.40;;;;;;5031905;28;20045;-66
2023/10/20 13:10:26;;;;;;;0.32;0.32;;;12.80;86.30;;;;;;5064230;28;20066;-66
2023/10/20 13:12:52;;;;;;;0.20;0.20;;;12.80;86.50;;;;;;5061896;28;20500;-62
2023/10/20 13:15:19;;;;;;;0.22;0.22;;;12.80;86.40;;;;;;5065617;28;20067;-62
2023/10/20 13:17:45;;;;;;;0.65;0.43;;;12.90;86.40;;;;;;5065131;28;20036;-62
2023/10/20 13:20:13;;;;;;;0.30;0.30;;;12.90;86.30;;;;;;5062709;28;20033;-62